EWG8ET EDDL-LDSP
Flight info
| Callsign | EWG8ET |
|---|---|
| Flight time | 1h 41m |
| Altitude | 35000 |
| Route | DODEN Y853 BOMBI DCT DETEV DCT DINKU M867 XERUM DCT BAVAX DCT RADIZ DCT ALIVO DCT NUPSO |
| Aircraft | A320/M-SDE2E3FGIJ1RWXYZ/HB1 |
Departure
| Time | 2026-05-05 09:51 |
|---|---|
| Airport | Düsseldorf Airport (EDDL) |
Arrival
| Time | 2026-05-05 11:32 |
|---|---|
| Airport | Split Saint Jerome Airport (LDSP) |
| Time | Latitude | Longitude | Altitude | Speed | Heading |
|---|---|---|---|---|---|
| 2026-05-05 09:21 | 51.27748 | 6.75920 | 130 ft | 0 kts | 91° |
| 2026-05-05 09:44 | 51.27748 | 6.75922 | 130 ft | 1 kts | 91° |
| 2026-05-05 09:44 | 51.27747 | 6.75978 | 129 ft | 6 kts | 91° |
| 2026-05-05 09:45 | 51.27753 | 6.76043 | 129 ft | 5 kts | 44° |
| 2026-05-05 09:45 | 51.27789 | 6.76044 | 129 ft | 7 kts | 360° |
| 2026-05-05 09:45 | 51.27844 | 6.76045 | 123 ft | 9 kts | 1° |
| 2026-05-05 09:45 | 51.27917 | 6.76048 | 128 ft | 12 kts | 1° |
| 2026-05-05 09:46 | 51.27992 | 6.76048 | 126 ft | 9 kts | 359° |
| 2026-05-05 09:46 | 51.28060 | 6.76048 | 127 ft | 8 kts | 1° |
| 2026-05-05 09:46 | 51.28104 | 6.76024 | 124 ft | 6 kts | 338° |
| 2026-05-05 09:46 | 51.28164 | 6.76094 | 127 ft | 17 kts | 53° |
| 2026-05-05 09:47 | 51.28257 | 6.76289 | 126 ft | 26 kts | 52° |
| 2026-05-05 09:47 | 51.28371 | 6.76525 | 124 ft | 28 kts | 52° |
| 2026-05-05 09:47 | 51.28487 | 6.76770 | 124 ft | 28 kts | 52° |
| 2026-05-05 09:47 | 51.28602 | 6.77012 | 125 ft | 27 kts | 52° |
| 2026-05-05 09:48 | 51.28717 | 6.77255 | 125 ft | 28 kts | 53° |
| 2026-05-05 09:48 | 51.28835 | 6.77501 | 128 ft | 28 kts | 53° |
| 2026-05-05 09:48 | 51.28955 | 6.77752 | 126 ft | 29 kts | 53° |
| 2026-05-05 09:48 | 51.29075 | 6.78005 | 127 ft | 29 kts | 53° |
| 2026-05-05 09:49 | 51.29190 | 6.78247 | 138 ft | 26 kts | 53° |
| 2026-05-05 09:49 | 51.29295 | 6.78466 | 147 ft | 22 kts | 52° |
| 2026-05-05 09:49 | 51.29376 | 6.78572 | 152 ft | 14 kts | 11° |
| 2026-05-05 09:49 | 51.29473 | 6.78563 | 152 ft | 15 kts | 355° |
| 2026-05-05 09:50 | 51.29511 | 6.78461 | 150 ft | 15 kts | 244° |
| 2026-05-05 09:50 | 51.29391 | 6.78201 | 143 ft | 60 kts | 233° |
| 2026-05-05 09:50 | 51.28991 | 6.77358 | 124 ft | 127 kts | 233° |
| 2026-05-05 09:50 | 51.28349 | 6.76012 | 167 ft | 172 kts | 233° |
| 2026-05-05 09:51 | 51.27630 | 6.74495 | 898 ft | 170 kts | 235° |
| 2026-05-05 09:51 | 51.26930 | 6.72969 | 1627 ft | 171 kts | 235° |
| 2026-05-05 09:51 | 51.26225 | 6.71419 | 2131 ft | 183 kts | 234° |
| 2026-05-05 09:51 | 51.25425 | 6.69700 | 2445 ft | 203 kts | 233° |
| 2026-05-05 09:52 | 51.24539 | 6.67794 | 2742 ft | 226 kts | 233° |
| 2026-05-05 09:52 | 51.23542 | 6.65680 | 3141 ft | 249 kts | 231° |
| 2026-05-05 09:52 | 51.22158 | 6.63938 | 3711 ft | 262 kts | 200° |
| 2026-05-05 09:52 | 51.20351 | 6.63600 | 4534 ft | 266 kts | 175° |
| 2026-05-05 09:53 | 51.18502 | 6.63867 | 5445 ft | 267 kts | 174° |
| 2026-05-05 09:53 | 51.16662 | 6.64183 | 6342 ft | 269 kts | 170° |
| 2026-05-05 09:53 | 51.14908 | 6.65226 | 7116 ft | 273 kts | 145° |
| 2026-05-05 09:53 | 51.13612 | 6.67438 | 7924 ft | 278 kts | 120° |
| 2026-05-05 09:54 | 51.13062 | 6.70411 | 8739 ft | 287 kts | 92° |
| 2026-05-05 09:54 | 51.13163 | 6.73585 | 9608 ft | 288 kts | 87° |
| 2026-05-05 09:54 | 51.13307 | 6.76792 | 10251 ft | 297 kts | 87° |
| 2026-05-05 09:54 | 51.13451 | 6.80209 | 10467 ft | 321 kts | 88° |
| 2026-05-05 09:55 | 51.13593 | 6.83821 | 10759 ft | 339 kts | 88° |
| 2026-05-05 09:55 | 51.13737 | 6.87616 | 11366 ft | 345 kts | 88° |
| 2026-05-05 09:55 | 51.13877 | 6.91456 | 12051 ft | 349 kts | 88° |
| 2026-05-05 09:55 | 51.14017 | 6.95347 | 12728 ft | 354 kts | 88° |
| 2026-05-05 09:56 | 51.14160 | 6.99284 | 13447 ft | 358 kts | 88° |
| 2026-05-05 09:56 | 51.14304 | 7.03291 | 14098 ft | 363 kts | 88° |
| 2026-05-05 09:56 | 51.14446 | 7.07275 | 14688 ft | 366 kts | 88° |
| 2026-05-05 09:56 | 51.14589 | 7.11343 | 15287 ft | 370 kts | 88° |
| 2026-05-05 09:57 | 51.14733 | 7.15465 | 15854 ft | 375 kts | 88° |
| 2026-05-05 09:57 | 51.14877 | 7.19645 | 16428 ft | 380 kts | 88° |
| 2026-05-05 09:57 | 51.15021 | 7.23867 | 17100 ft | 384 kts | 88° |
| 2026-05-05 09:57 | 51.15162 | 7.28135 | 17718 ft | 387 kts | 88° |
| 2026-05-05 09:58 | 51.15308 | 7.32435 | 18292 ft | 389 kts | 88° |
| 2026-05-05 09:58 | 51.15404 | 7.36772 | 18785 ft | 392 kts | 93° |
| 2026-05-05 09:58 | 51.15036 | 7.41071 | 19271 ft | 393 kts | 105° |
| 2026-05-05 09:58 | 51.14139 | 7.45114 | 19750 ft | 393 kts | 117° |
| 2026-05-05 09:59 | 51.12720 | 7.48835 | 20235 ft | 394 kts | 129° |
| 2026-05-05 09:59 | 51.10870 | 7.52037 | 20728 ft | 394 kts | 138° |
| 2026-05-05 09:59 | 51.08881 | 7.55054 | 21229 ft | 396 kts | 138° |
| 2026-05-05 09:59 | 51.06887 | 7.58083 | 21754 ft | 397 kts | 138° |
| 2026-05-05 10:00 | 51.04882 | 7.61133 | 22211 ft | 400 kts | 139° |
| 2026-05-05 10:00 | 51.02866 | 7.64199 | 22663 ft | 402 kts | 139° |
| 2026-05-05 10:00 | 51.00833 | 7.67291 | 23121 ft | 405 kts | 139° |
| 2026-05-05 10:00 | 50.98818 | 7.70351 | 23548 ft | 407 kts | 139° |
| 2026-05-05 10:01 | 50.96719 | 7.73383 | 23925 ft | 408 kts | 144° |
| 2026-05-05 10:01 | 50.94371 | 7.75924 | 24269 ft | 408 kts | 150° |
| 2026-05-05 10:01 | 50.91947 | 7.78309 | 24629 ft | 411 kts | 150° |
| 2026-05-05 10:01 | 50.89539 | 7.80677 | 24982 ft | 413 kts | 150° |
| 2026-05-05 10:02 | 50.87087 | 7.83085 | 25331 ft | 415 kts | 151° |
| 2026-05-05 10:02 | 50.84627 | 7.85500 | 25666 ft | 417 kts | 151° |
| 2026-05-05 10:02 | 50.82153 | 7.87930 | 26024 ft | 420 kts | 151° |
| 2026-05-05 10:02 | 50.79663 | 7.90374 | 26389 ft | 422 kts | 151° |
| 2026-05-05 10:03 | 50.77159 | 7.92830 | 26757 ft | 424 kts | 151° |
| 2026-05-05 10:03 | 50.74635 | 7.95302 | 27092 ft | 427 kts | 151° |
| 2026-05-05 10:03 | 50.72100 | 7.97781 | 27416 ft | 429 kts | 152° |
| 2026-05-05 10:03 | 50.69585 | 8.00233 | 27740 ft | 431 kts | 152° |
| 2026-05-05 10:04 | 50.67024 | 8.02721 | 28067 ft | 433 kts | 152° |
| 2026-05-05 10:04 | 50.64452 | 8.05214 | 28381 ft | 435 kts | 152° |
| 2026-05-05 10:04 | 50.61856 | 8.07733 | 28691 ft | 437 kts | 152° |
| 2026-05-05 10:04 | 50.59377 | 8.10429 | 28970 ft | 443 kts | 144° |
| 2026-05-05 10:05 | 50.57016 | 8.13548 | 29310 ft | 444 kts | 144° |
| 2026-05-05 10:05 | 50.54644 | 8.16677 | 29622 ft | 445 kts | 144° |
| 2026-05-05 10:05 | 50.52261 | 8.19799 | 29906 ft | 447 kts | 144° |
| 2026-05-05 10:05 | 50.49866 | 8.22931 | 30152 ft | 448 kts | 144° |
| 2026-05-05 10:06 | 50.47464 | 8.26068 | 30387 ft | 450 kts | 144° |
| 2026-05-05 10:06 | 50.45050 | 8.29217 | 30640 ft | 450 kts | 145° |
| 2026-05-05 10:06 | 50.42640 | 8.32356 | 30985 ft | 449 kts | 145° |
| 2026-05-05 10:06 | 50.40271 | 8.35441 | 31310 ft | 448 kts | 145° |
| 2026-05-05 10:07 | 50.37878 | 8.38550 | 31644 ft | 447 kts | 145° |
| 2026-05-05 10:07 | 50.35483 | 8.41657 | 31983 ft | 446 kts | 145° |
| 2026-05-05 10:07 | 50.33092 | 8.44757 | 32330 ft | 444 kts | 145° |
| 2026-05-05 10:07 | 50.30714 | 8.47838 | 32691 ft | 443 kts | 146° |
| 2026-05-05 10:08 | 50.28338 | 8.50913 | 33020 ft | 441 kts | 146° |
| 2026-05-05 10:08 | 50.25996 | 8.53935 | 33331 ft | 441 kts | 146° |
| 2026-05-05 10:08 | 50.23628 | 8.56985 | 33648 ft | 440 kts | 146° |
| 2026-05-05 10:08 | 50.21263 | 8.60025 | 33938 ft | 440 kts | 146° |
| 2026-05-05 10:09 | 50.18900 | 8.63059 | 34201 ft | 439 kts | 146° |
| 2026-05-05 10:09 | 50.16545 | 8.66085 | 34468 ft | 439 kts | 146° |
| 2026-05-05 10:09 | 50.14215 | 8.69083 | 34717 ft | 438 kts | 146° |
| 2026-05-05 10:09 | 50.11852 | 8.72119 | 34841 ft | 438 kts | 146° |
| 2026-05-05 10:10 | 50.07238 | 8.78289 | 34866 ft | 439 kts | 139° |
| 2026-05-05 10:10 | 50.03745 | 8.86210 | 34868 ft | 453 kts | 121° |
| 2026-05-05 10:11 | 50.01037 | 8.94980 | 34869 ft | 453 kts | 121° |
| 2026-05-05 10:11 | 49.98285 | 9.03784 | 34873 ft | 453 kts | 122° |
| 2026-05-05 10:12 | 49.95539 | 9.12539 | 34865 ft | 453 kts | 121° |
| 2026-05-05 10:12 | 49.92776 | 9.21337 | 34862 ft | 453 kts | 121° |
| 2026-05-05 10:13 | 49.90472 | 9.28654 | 34862 ft | 452 kts | 121° |
| 2026-05-05 10:13 | 49.87242 | 9.38854 | 34864 ft | 453 kts | 122° |
| 2026-05-05 10:14 | 49.84923 | 9.46146 | 34863 ft | 453 kts | 122° |
| 2026-05-05 10:14 | 49.81156 | 9.55718 | 34846 ft | 441 kts | 136° |
| 2026-05-05 10:15 | 49.77545 | 9.61217 | 34849 ft | 436 kts | 142° |
| 2026-05-05 10:15 | 49.73118 | 9.67641 | 34851 ft | 436 kts | 142° |
| 2026-05-05 10:16 | 49.68684 | 9.74047 | 34854 ft | 436 kts | 142° |
| 2026-05-05 10:16 | 49.64275 | 9.80398 | 34854 ft | 436 kts | 142° |
| 2026-05-05 10:17 | 49.59845 | 9.86769 | 34854 ft | 435 kts | 142° |
| 2026-05-05 10:17 | 49.55405 | 9.93143 | 34834 ft | 436 kts | 142° |
| 2026-05-05 10:18 | 49.50960 | 9.99517 | 34834 ft | 436 kts | 142° |
| 2026-05-05 10:18 | 49.46533 | 10.05830 | 34846 ft | 436 kts | 142° |
| 2026-05-05 10:19 | 49.42105 | 10.12133 | 34858 ft | 436 kts | 142° |
| 2026-05-05 10:19 | 49.37654 | 10.18463 | 34863 ft | 436 kts | 142° |
| 2026-05-05 10:20 | 49.33197 | 10.24783 | 34866 ft | 435 kts | 142° |
| 2026-05-05 10:20 | 49.28762 | 10.31048 | 34856 ft | 436 kts | 142° |
| 2026-05-05 10:21 | 49.24286 | 10.37299 | 34872 ft | 432 kts | 146° |
| 2026-05-05 10:21 | 49.19292 | 10.42247 | 34882 ft | 425 kts | 154° |
| 2026-05-05 10:22 | 49.14234 | 10.46850 | 34883 ft | 425 kts | 154° |
| 2026-05-05 10:22 | 49.09161 | 10.51466 | 34885 ft | 425 kts | 154° |
| 2026-05-05 10:23 | 49.04078 | 10.56082 | 34877 ft | 424 kts | 154° |
| 2026-05-05 10:23 | 48.99037 | 10.60654 | 34857 ft | 423 kts | 154° |
| 2026-05-05 10:24 | 48.93965 | 10.65236 | 34845 ft | 424 kts | 154° |
| 2026-05-05 10:24 | 48.88877 | 10.69806 | 34843 ft | 425 kts | 154° |
| 2026-05-05 10:25 | 48.83809 | 10.74347 | 34838 ft | 425 kts | 154° |
| 2026-05-05 10:25 | 48.79161 | 10.80043 | 34836 ft | 436 kts | 136° |
| 2026-05-05 10:26 | 48.75114 | 10.86904 | 34840 ft | 436 kts | 137° |
| 2026-05-05 10:26 | 48.71061 | 10.93683 | 34848 ft | 436 kts | 137° |
| 2026-05-05 10:27 | 48.66969 | 11.00490 | 34837 ft | 437 kts | 137° |
| 2026-05-05 10:27 | 48.62899 | 11.07259 | 34840 ft | 437 kts | 137° |
| 2026-05-05 10:28 | 48.58802 | 11.14076 | 34840 ft | 438 kts | 137° |
| 2026-05-05 10:28 | 48.54706 | 11.20877 | 34838 ft | 438 kts | 137° |
| 2026-05-05 10:29 | 48.50595 | 11.27676 | 34814 ft | 439 kts | 137° |
| 2026-05-05 10:29 | 48.46496 | 11.34443 | 34804 ft | 440 kts | 137° |
| 2026-05-05 10:30 | 48.42368 | 11.41245 | 34810 ft | 442 kts | 137° |
| 2026-05-05 10:30 | 48.38210 | 11.48084 | 34818 ft | 442 kts | 137° |
| 2026-05-05 10:31 | 48.34040 | 11.54911 | 34823 ft | 442 kts | 137° |
| 2026-05-05 10:31 | 48.29890 | 11.61679 | 34824 ft | 442 kts | 137° |
| 2026-05-05 10:32 | 48.25688 | 11.68461 | 34811 ft | 442 kts | 138° |
| 2026-05-05 10:32 | 48.21277 | 11.74782 | 34814 ft | 441 kts | 142° |
| 2026-05-05 10:33 | 48.16676 | 11.80875 | 34815 ft | 441 kts | 142° |
| 2026-05-05 10:33 | 48.12089 | 11.87012 | 34813 ft | 442 kts | 141° |
| 2026-05-05 10:34 | 48.07572 | 11.93182 | 34816 ft | 442 kts | 141° |
| 2026-05-05 10:34 | 48.03031 | 11.99411 | 34806 ft | 442 kts | 141° |
| 2026-05-05 10:35 | 47.98514 | 12.05587 | 34806 ft | 442 kts | 141° |
| 2026-05-05 10:35 | 47.93950 | 12.11778 | 34812 ft | 442 kts | 141° |
| 2026-05-05 10:36 | 47.89409 | 12.17911 | 34813 ft | 442 kts | 141° |
| 2026-05-05 10:36 | 47.84850 | 12.24066 | 34816 ft | 442 kts | 141° |
| 2026-05-05 10:37 | 47.80288 | 12.30218 | 34821 ft | 442 kts | 141° |
| 2026-05-05 10:37 | 47.75720 | 12.36357 | 34818 ft | 442 kts | 141° |
| 2026-05-05 10:38 | 47.71190 | 12.42426 | 34822 ft | 441 kts | 141° |
| 2026-05-05 10:38 | 47.66623 | 12.48528 | 34823 ft | 440 kts | 141° |
| 2026-05-05 10:39 | 47.62061 | 12.54482 | 34823 ft | 437 kts | 146° |
| 2026-05-05 10:39 | 47.57158 | 12.59863 | 34821 ft | 437 kts | 147° |
| 2026-05-05 10:40 | 47.52304 | 12.65182 | 34819 ft | 437 kts | 147° |
| 2026-05-05 10:40 | 47.47423 | 12.70514 | 34829 ft | 435 kts | 147° |
| 2026-05-05 10:41 | 47.42541 | 12.75833 | 34853 ft | 435 kts | 147° |
| 2026-05-05 10:41 | 47.37671 | 12.81126 | 34853 ft | 434 kts | 147° |
| 2026-05-05 10:42 | 47.30392 | 12.89006 | 34879 ft | 434 kts | 147° |
| 2026-05-05 10:43 | 47.25522 | 12.94283 | 34858 ft | 434 kts | 147° |
| 2026-05-05 10:43 | 47.20671 | 12.99526 | 34880 ft | 435 kts | 147° |
| 2026-05-05 10:44 | 47.15773 | 13.04800 | 34885 ft | 435 kts | 147° |
| 2026-05-05 10:44 | 47.10870 | 13.10052 | 34907 ft | 436 kts | 147° |
| 2026-05-05 10:45 | 47.05989 | 13.15260 | 34909 ft | 436 kts | 147° |
| 2026-05-05 10:45 | 47.01081 | 13.20515 | 34930 ft | 436 kts | 147° |
| 2026-05-05 10:46 | 46.96207 | 13.25723 | 34933 ft | 436 kts | 147° |
| 2026-05-05 10:46 | 46.91302 | 13.30945 | 34964 ft | 436 kts | 147° |
| 2026-05-05 10:47 | 46.86390 | 13.36158 | 34974 ft | 436 kts | 147° |
| 2026-05-05 10:47 | 46.81480 | 13.41346 | 34990 ft | 435 kts | 147° |
| 2026-05-05 10:48 | 46.76603 | 13.46491 | 34976 ft | 435 kts | 147° |
| 2026-05-05 10:48 | 46.71691 | 13.51658 | 34980 ft | 435 kts | 147° |
| 2026-05-05 10:49 | 46.66777 | 13.56826 | 34982 ft | 435 kts | 147° |
| 2026-05-05 10:49 | 46.61867 | 13.61983 | 34998 ft | 435 kts | 147° |
| 2026-05-05 10:50 | 46.56979 | 13.67094 | 35001 ft | 435 kts | 147° |
| 2026-05-05 10:50 | 46.52062 | 13.72228 | 34998 ft | 436 kts | 147° |
| 2026-05-05 10:51 | 46.47124 | 13.77376 | 34997 ft | 436 kts | 147° |
| 2026-05-05 10:51 | 46.42214 | 13.82484 | 34984 ft | 437 kts | 149° |
| 2026-05-05 10:52 | 46.37276 | 13.87607 | 35008 ft | 437 kts | 148° |
| 2026-05-05 10:52 | 46.32319 | 13.92727 | 35006 ft | 437 kts | 147° |
| 2026-05-05 10:53 | 46.27351 | 13.97852 | 35017 ft | 438 kts | 147° |
| 2026-05-05 10:53 | 46.22414 | 14.02951 | 35014 ft | 439 kts | 147° |
| 2026-05-05 10:54 | 46.17432 | 14.08069 | 35007 ft | 439 kts | 147° |
| 2026-05-05 10:54 | 46.12445 | 14.13171 | 35021 ft | 440 kts | 147° |
| 2026-05-05 10:55 | 46.07477 | 14.18254 | 35021 ft | 440 kts | 147° |
| 2026-05-05 10:55 | 46.02473 | 14.23368 | 35013 ft | 441 kts | 147° |
| 2026-05-05 10:56 | 45.97446 | 14.28488 | 35013 ft | 442 kts | 148° |
| 2026-05-05 10:56 | 45.92444 | 14.33570 | 35020 ft | 443 kts | 148° |
| 2026-05-05 10:57 | 45.87404 | 14.38677 | 35023 ft | 443 kts | 147° |
| 2026-05-05 10:57 | 45.82358 | 14.43781 | 35036 ft | 443 kts | 147° |
| 2026-05-05 10:58 | 45.77325 | 14.48863 | 35040 ft | 442 kts | 147° |
| 2026-05-05 10:58 | 45.72318 | 14.53905 | 35041 ft | 442 kts | 147° |
| 2026-05-05 10:59 | 45.67286 | 14.58953 | 35046 ft | 441 kts | 148° |
| 2026-05-05 10:59 | 45.62253 | 14.63995 | 35046 ft | 441 kts | 148° |
| 2026-05-05 11:00 | 45.57256 | 14.68997 | 35038 ft | 442 kts | 148° |
| 2026-05-05 11:00 | 45.52205 | 14.74017 | 35047 ft | 442 kts | 149° |
| 2026-05-05 11:01 | 45.46968 | 14.78620 | 35049 ft | 441 kts | 153° |
| 2026-05-05 11:01 | 45.41632 | 14.82844 | 35056 ft | 441 kts | 154° |
| 2026-05-05 11:02 | 45.36261 | 14.87091 | 35047 ft | 441 kts | 153° |
| 2026-05-05 11:02 | 45.30909 | 14.91448 | 35055 ft | 442 kts | 153° |
| 2026-05-05 11:03 | 45.25610 | 14.95808 | 35061 ft | 442 kts | 153° |
| 2026-05-05 11:03 | 45.20276 | 15.00168 | 35044 ft | 442 kts | 153° |
| 2026-05-05 11:04 | 45.14969 | 15.04483 | 35040 ft | 442 kts | 153° |
| 2026-05-05 11:04 | 45.09610 | 15.08816 | 35044 ft | 443 kts | 153° |
| 2026-05-05 11:05 | 45.04278 | 15.13124 | 35044 ft | 443 kts | 153° |
| 2026-05-05 11:05 | 44.98914 | 15.17454 | 35046 ft | 443 kts | 153° |
| 2026-05-05 11:06 | 44.93552 | 15.21788 | 35046 ft | 444 kts | 154° |
| 2026-05-05 11:06 | 44.88185 | 15.26102 | 35047 ft | 444 kts | 154° |
| 2026-05-05 11:07 | 44.82829 | 15.30385 | 35048 ft | 445 kts | 154° |
| 2026-05-05 11:07 | 44.77437 | 15.34695 | 35047 ft | 445 kts | 153° |
| 2026-05-05 11:08 | 44.72050 | 15.38998 | 35042 ft | 445 kts | 153° |
| 2026-05-05 11:08 | 44.66683 | 15.43274 | 35048 ft | 445 kts | 153° |
| 2026-05-05 11:09 | 44.61293 | 15.47562 | 34909 ft | 446 kts | 153° |
| 2026-05-05 11:09 | 44.58595 | 15.49708 | 34666 ft | 445 kts | 153° |
| 2026-05-05 11:09 | 44.55922 | 15.51828 | 34427 ft | 445 kts | 153° |
| 2026-05-05 11:09 | 44.53231 | 15.53957 | 34189 ft | 445 kts | 153° |
| 2026-05-05 11:10 | 44.50535 | 15.56088 | 33936 ft | 444 kts | 153° |
| 2026-05-05 11:10 | 44.47840 | 15.58218 | 33599 ft | 445 kts | 153° |
| 2026-05-05 11:10 | 44.45128 | 15.60361 | 32675 ft | 449 kts | 153° |
| 2026-05-05 11:10 | 44.42429 | 15.62493 | 32216 ft | 442 kts | 153° |
| 2026-05-05 11:11 | 44.39756 | 15.64600 | 31632 ft | 438 kts | 153° |
| 2026-05-05 11:11 | 44.37145 | 15.66655 | 31052 ft | 434 kts | 153° |
| 2026-05-05 11:11 | 44.34518 | 15.68718 | 30488 ft | 430 kts | 153° |
| 2026-05-05 11:11 | 44.31915 | 15.70760 | 29890 ft | 427 kts | 153° |
| 2026-05-05 11:12 | 44.29334 | 15.72786 | 29302 ft | 423 kts | 153° |
| 2026-05-05 11:12 | 44.26777 | 15.74791 | 28776 ft | 418 kts | 153° |
| 2026-05-05 11:12 | 44.24285 | 15.76744 | 28246 ft | 413 kts | 153° |
| 2026-05-05 11:12 | 44.21779 | 15.78704 | 27707 ft | 409 kts | 153° |
| 2026-05-05 11:13 | 44.19334 | 15.80612 | 27197 ft | 405 kts | 154° |
| 2026-05-05 11:13 | 44.16857 | 15.82543 | 26679 ft | 400 kts | 154° |
| 2026-05-05 11:13 | 44.14400 | 15.84187 | 26189 ft | 393 kts | 163° |
| 2026-05-05 11:13 | 44.11796 | 15.85210 | 25709 ft | 385 kts | 173° |
| 2026-05-05 11:14 | 44.09156 | 15.85604 | 25233 ft | 378 kts | 180° |
| 2026-05-05 11:14 | 44.06537 | 15.85821 | 24774 ft | 375 kts | 180° |
| 2026-05-05 11:14 | 44.03965 | 15.86047 | 24330 ft | 372 kts | 179° |
| 2026-05-05 11:14 | 44.01384 | 15.86282 | 23881 ft | 369 kts | 179° |
| 2026-05-05 11:15 | 43.98828 | 15.86516 | 23398 ft | 366 kts | 179° |
| 2026-05-05 11:15 | 43.96294 | 15.86749 | 22940 ft | 363 kts | 179° |
| 2026-05-05 11:15 | 43.93821 | 15.86974 | 22507 ft | 359 kts | 179° |
| 2026-05-05 11:15 | 43.91333 | 15.87195 | 22068 ft | 356 kts | 180° |
| 2026-05-05 11:16 | 43.88875 | 15.87412 | 21635 ft | 353 kts | 180° |
| 2026-05-05 11:16 | 43.86431 | 15.87624 | 21189 ft | 351 kts | 179° |
| 2026-05-05 11:16 | 43.83996 | 15.87837 | 20742 ft | 350 kts | 180° |
| 2026-05-05 11:16 | 43.81569 | 15.88047 | 20287 ft | 349 kts | 179° |
| 2026-05-05 11:17 | 43.79145 | 15.88255 | 19829 ft | 348 kts | 180° |
| 2026-05-05 11:17 | 43.76728 | 15.88467 | 19371 ft | 347 kts | 180° |
| 2026-05-05 11:17 | 43.74313 | 15.88680 | 18913 ft | 347 kts | 180° |
| 2026-05-05 11:17 | 43.71900 | 15.88894 | 18453 ft | 347 kts | 180° |
| 2026-05-05 11:18 | 43.69517 | 15.89105 | 17945 ft | 347 kts | 179° |
| 2026-05-05 11:18 | 43.67109 | 15.89320 | 17488 ft | 345 kts | 180° |
| 2026-05-05 11:18 | 43.64722 | 15.89533 | 17040 ft | 343 kts | 180° |
| 2026-05-05 11:18 | 43.62335 | 15.89741 | 16591 ft | 341 kts | 179° |
| 2026-05-05 11:19 | 43.59969 | 15.89945 | 16150 ft | 340 kts | 179° |
| 2026-05-05 11:19 | 43.57633 | 15.90145 | 15714 ft | 341 kts | 180° |
| 2026-05-05 11:19 | 43.55258 | 15.90345 | 15262 ft | 341 kts | 179° |
| 2026-05-05 11:19 | 43.52885 | 15.90546 | 14746 ft | 342 kts | 179° |
| 2026-05-05 11:20 | 43.50509 | 15.90750 | 14259 ft | 341 kts | 179° |
| 2026-05-05 11:20 | 43.48141 | 15.90957 | 13795 ft | 340 kts | 179° |
| 2026-05-05 11:20 | 43.45818 | 15.91162 | 13307 ft | 337 kts | 178° |
| 2026-05-05 11:20 | 43.43488 | 15.91366 | 12850 ft | 334 kts | 179° |
| 2026-05-05 11:21 | 43.41177 | 15.91565 | 12384 ft | 330 kts | 178° |
| 2026-05-05 11:21 | 43.38888 | 15.91759 | 11928 ft | 328 kts | 178° |
| 2026-05-05 11:21 | 43.36624 | 15.91950 | 11575 ft | 322 kts | 178° |
| 2026-05-05 11:21 | 43.34463 | 15.92159 | 11435 ft | 299 kts | 174° |
| 2026-05-05 11:22 | 43.32521 | 15.92952 | 11230 ft | 294 kts | 156° |
| 2026-05-05 11:22 | 43.30877 | 15.94590 | 10971 ft | 294 kts | 136° |
| 2026-05-05 11:22 | 43.29706 | 15.96919 | 10540 ft | 301 kts | 118° |
| 2026-05-05 11:22 | 43.28867 | 15.99558 | 10226 ft | 298 kts | 116° |
| 2026-05-05 11:23 | 43.28064 | 16.02089 | 9775 ft | 291 kts | 117° |
| 2026-05-05 11:23 | 43.27254 | 16.04615 | 9145 ft | 287 kts | 116° |
| 2026-05-05 11:23 | 43.26453 | 16.07096 | 8561 ft | 282 kts | 117° |
| 2026-05-05 11:23 | 43.25659 | 16.09554 | 8084 ft | 283 kts | 117° |
| 2026-05-05 11:24 | 43.25081 | 16.12123 | 7677 ft | 284 kts | 97° |
| 2026-05-05 11:24 | 43.25408 | 16.14789 | 7119 ft | 287 kts | 68° |
| 2026-05-05 11:24 | 43.26645 | 16.16919 | 6625 ft | 289 kts | 38° |
| 2026-05-05 11:24 | 43.27820 | 16.17777 | 6288 ft | 292 kts | 21° |
| 2026-05-05 11:25 | 43.30359 | 16.19070 | 5604 ft | 295 kts | 24° |
| 2026-05-05 11:25 | 43.32245 | 16.20174 | 5142 ft | 294 kts | 25° |
| 2026-05-05 11:25 | 43.34057 | 16.21385 | 4672 ft | 282 kts | 36° |
| 2026-05-05 11:25 | 43.35520 | 16.22992 | 4614 ft | 260 kts | 47° |
| 2026-05-05 11:26 | 43.36388 | 16.24086 | 4569 ft | 250 kts | 45° |
| 2026-05-05 11:26 | 43.38069 | 16.26135 | 4462 ft | 239 kts | 45° |
| 2026-05-05 11:26 | 43.39295 | 16.27612 | 4354 ft | 229 kts | 45° |
| 2026-05-05 11:26 | 43.40089 | 16.28571 | 4180 ft | 230 kts | 45° |
| 2026-05-05 11:27 | 43.41290 | 16.30027 | 3833 ft | 229 kts | 45° |
| 2026-05-05 11:27 | 43.42474 | 16.31458 | 3523 ft | 224 kts | 46° |
| 2026-05-05 11:27 | 43.43634 | 16.32861 | 3225 ft | 220 kts | 46° |
| 2026-05-05 11:27 | 43.44769 | 16.34237 | 3027 ft | 214 kts | 48° |
| 2026-05-05 11:28 | 43.45848 | 16.35541 | 3017 ft | 198 kts | 46° |
| 2026-05-05 11:28 | 43.46865 | 16.36771 | 2985 ft | 191 kts | 45° |
| 2026-05-05 11:28 | 43.47877 | 16.37928 | 2935 ft | 187 kts | 44° |
| 2026-05-05 11:28 | 43.48923 | 16.39030 | 2913 ft | 190 kts | 40° |
| 2026-05-05 11:29 | 43.50011 | 16.40031 | 2779 ft | 190 kts | 29° |
| 2026-05-05 11:29 | 43.51284 | 16.40380 | 2685 ft | 183 kts | 359° |
| 2026-05-05 11:29 | 43.52495 | 16.40009 | 2501 ft | 175 kts | 347° |
| 2026-05-05 11:29 | 43.53641 | 16.39647 | 2404 ft | 166 kts | 348° |
| 2026-05-05 11:30 | 43.54700 | 16.39046 | 2250 ft | 164 kts | 323° |
| 2026-05-05 11:30 | 43.55435 | 16.37899 | 2102 ft | 162 kts | 295° |
| 2026-05-05 11:30 | 43.55861 | 16.36469 | 1850 ft | 159 kts | 280° |
| 2026-05-05 11:30 | 43.55965 | 16.34971 | 1532 ft | 157 kts | 263° |
| 2026-05-05 11:31 | 43.55760 | 16.33482 | 1009 ft | 165 kts | 248° |
| 2026-05-05 11:31 | 43.55188 | 16.32099 | 327 ft | 170 kts | 229° |
| 2026-05-05 11:31 | 43.54492 | 16.30870 | 67 ft | 153 kts | 229° |
| 2026-05-05 11:31 | 43.53958 | 16.29912 | 69 ft | 87 kts | 233° |
| 2026-05-05 11:32 | 43.53775 | 16.29579 | 82 ft | 2 kts | 233° |
| 2026-05-05 11:32 | 43.53740 | 16.29516 | 70 ft | 14 kts | 232° |
| 2026-05-05 11:32 | 43.53701 | 16.29517 | 70 ft | 5 kts | 116° |
| 2026-05-05 11:32 | 43.53683 | 16.29581 | 61 ft | 10 kts | 135° |
| 2026-05-05 11:33 | 43.53685 | 16.29661 | 66 ft | 9 kts | 50° |
| 2026-05-05 11:33 | 43.53718 | 16.29726 | 64 ft | 8 kts | 75° |
| 2026-05-05 11:33 | 43.53703 | 16.29786 | 60 ft | 6 kts | 114° |
| 2026-05-05 11:33 | 43.53695 | 16.29808 | 65 ft | 0 kts | 115° |